Time;durP1;ratioP1;P1;durP2;ratioP2;P2;SDS_P1;SDS_P2;PMS_P1;PMS_P2;Temp;Humidity;BMP_temperature;BMP_pressure;BME280_temperature;BME280_humidity;BME280_pressure;Samples;Min_cycle;Max_cycle;Signal;HPM_P1;HPM_P2
2022/09/12 00:03:52;;;;;;;5.38;3.03;;;19.90;92.80;;;;;;10474528;28;20032;-64
2022/09/12 00:08:55;;;;;;;4.15;3.10;;;19.90;92.80;;;;;;10477125;28;20020;-65
2022/09/12 00:14:00;;;;;;;3.05;2.60;;;19.80;92.70;;;;;;10476851;28;20127;-64
2022/09/12 00:19:02;;;;;;;4.70;3.00;;;19.80;92.70;;;;;;10471861;28;20020;-64
2022/09/12 00:24:03;;;;;;;3.50;2.75;;;19.80;92.70;;;;;;10477421;28;20504;-64
2022/09/12 00:29:04;;;;;;;4.05;2.95;;;19.80;92.70;;;;;;10475545;28;20048;-64
2022/09/12 00:34:05;;;;;;;4.65;3.00;;;19.70;92.70;;;;;;10476216;28;20564;-64
2022/09/12 00:39:06;;;;;;;3.70;3.10;;;19.70;92.70;;;;;;10477041;28;20021;-65
2022/09/12 00:44:21;;;;;;;3.65;3.10;;;19.70;92.70;;;;;;10475953;28;20440;-64
2022/09/12 00:49:25;;;;;;;4.70;2.85;;;19.70;92.70;;;;;;10473284;28;20087;-65
2022/09/12 00:54:31;;;;;;;3.92;3.08;;;19.50;92.60;;;;;;10476527;28;20032;-63
2022/09/12 00:59:43;;;;;;;5.22;3.40;;;19.60;92.70;;;;;;10472060;28;20047;-64
2022/09/12 01:04:46;;;;;;;4.35;2.85;;;19.60;92.60;;;;;;10474534;28;20063;-64
2022/09/12 01:09:47;;;;;;;4.10;3.22;;;19.60;92.70;;;;;;10475069;28;20127;-64
2022/09/12 01:14:48;;;;;;;5.55;3.70;;;19.50;92.60;;;;;;10483039;28;20063;-64
2022/09/12 01:20:07;;;;;;;4.10;2.83;;;19.50;92.60;;;;;;10481833;28;20039;-64
2022/09/12 01:25:27;;;;;;;5.43;3.20;;;19.50;92.60;;;;;;10478433;28;20032;-64
2022/09/12 01:30:59;;;;;;;4.55;3.70;;;19.50;92.60;;;;;;10481599;28;20510;-64
2022/09/12 01:36:33;;;;;;;4.63;3.45;;;19.40;92.60;;;;;;10476928;28;20079;-64
2022/09/12 01:41:46;;;;;;;4.88;3.92;;;19.40;92.50;;;;;;10482038;28;20427;-64
2022/09/12 01:46:56;;;;;;;5.95;4.25;;;19.40;92.60;;;;;;10475859;28;20040;-64
2022/09/12 01:52:23;;;;;;;5.45;3.75;;;19.40;92.60;;;;;;10476284;28;20055;-64
2022/09/12 01:57:35;;;;;;;5.93;4.32;;;19.30;92.60;;;;;;10478543;28;20037;-65
2022/09/12 02:03:01;;;;;;;4.75;3.92;;;19.30;92.60;;;;;;10474007;28;20024;-64
2022/09/12 02:08:24;;;;;;;4.47;3.80;;;19.30;92.60;;;;;;10474366;28;20578;-64
2022/09/12 02:13:40;;;;;;;5.38;4.25;;;19.30;92.60;;;;;;10474302;28;20047;-65
2022/09/12 02:18:47;;;;;;;5.50;4.30;;;19.30;92.60;;;;;;10478115;28;20040;-64
2022/09/12 02:23:56;;;;;;;6.13;4.72;;;19.30;92.60;;;;;;10478445;28;20031;-64
2022/09/12 02:28:57;;;;;;;6.70;4.25;;;19.20;92.60;;;;;;10475590;28;20035;-64
2022/09/12 02:34:32;;;;;;;5.95;4.63;;;19.20;92.60;;;;;;10476265;28;20029;-64
2022/09/12 02:39:34;;;;;;;6.38;5.13;;;19.20;92.60;;;;;;10479897;28;20393;-64
2022/09/12 02:44:35;;;;;;;5.82;4.50;;;19.10;92.60;;;;;;10474137;28;20029;-64
2022/09/12 02:49:36;;;;;;;7.20;4.72;;;19.10;92.60;;;;;;10473958;28;20052;-64
2022/09/12 02:54:37;;;;;;;7.28;5.40;;;19.10;92.60;;;;;;10473742;28;20497;-64
2022/09/12 02:59:37;;;;;;;7.40;4.85;;;19.10;92.60;;;;;;10475083;28;20576;-64
2022/09/12 03:04:54;;;;;;;7.10;5.07;;;19.10;92.70;;;;;;10477190;28;20028;-64
2022/09/12 03:10:14;;;;;;;6.90;5.10;;;19.00;92.60;;;;;;10472606;28;20028;-64
2022/09/12 03:15:59;;;;;;;7.18;5.32;;;19.00;92.60;;;;;;10475715;28;20076;-64
2022/09/12 03:21:24;;;;;;;6.90;5.22;;;19.00;92.60;;;;;;10444406;28;20071;-64
2022/09/12 03:26:31;;;;;;;7.63;5.85;;;19.00;92.60;;;;;;10460507;28;20102;-63
2022/09/12 03:31:32;;;;;;;6.65;4.88;;;19.00;92.60;;;;;;10470283;28;20064;-64
2022/09/12 03:36:33;;;;;;;7.97;5.20;;;18.90;92.60;;;;;;10469740;28;20505;-64
2022/09/12 03:41:34;;;;;;;8.90;5.88;;;18.90;92.60;;;;;;10476260;28;20017;-65
2022/09/12 03:46:35;;;;;;;6.63;4.82;;;18.90;92.60;;;;;;10473824;28;20107;-64
2022/09/12 03:51:37;;;;;;;8.82;5.78;;;18.90;92.60;;;;;;10473004;28;20067;-64
2022/09/12 03:56:40;;;;;;;7.50;5.13;;;18.90;92.60;;;;;;10475667;28;20468;-63
2022/09/12 04:01:41;;;;;;;7.78;5.43;;;18.90;92.60;;;;;;10474592;28;20481;-64
2022/09/12 04:06:42;;;;;;;7.05;5.22;;;18.80;92.50;;;;;;10472958;28;20020;-64
2022/09/12 04:11:43;;;;;;;8.20;5.43;;;18.80;92.60;;;;;;10476404;28;20056;-65
2022/09/12 04:16:44;;;;;;;6.05;4.57;;;18.80;92.50;;;;;;10467964;28;20489;-63
2022/09/12 04:21:45;;;;;;;6.20;4.13;;;18.80;92.60;;;;;;10467762;28;20051;-64
2022/09/12 04:26:46;;;;;;;6.00;4.90;;;18.70;92.50;;;;;;10471844;28;20048;-63
2022/09/12 04:31:47;;;;;;;6.22;4.45;;;18.70;92.50;;;;;;10467491;28;20515;-64
2022/09/12 04:36:48;;;;;;;7.03;4.70;;;18.70;92.50;;;;;;10470661;28;20028;-63
2022/09/12 04:41:49;;;;;;;7.38;4.95;;;18.70;92.50;;;;;;10472679;28;20064;-63
2022/09/12 04:46:49;;;;;;;7.22;4.90;;;18.70;92.50;;;;;;10472420;28;20032;-64
2022/09/12 04:51:52;;;;;;;7.97;5.20;;;18.70;92.50;;;;;;10470131;28;20049;-63
2022/09/12 04:56:54;;;;;;;9.75;5.47;;;18.60;92.50;;;;;;10473822;28;20115;-64
2022/09/12 05:01:54;;;;;;;8.07;5.70;;;18.60;92.60;;;;;;10470922;28;20036;-63
2022/09/12 05:06:55;;;;;;;9.65;6.63;;;18.50;92.60;;;;;;10472814;28;20036;-63
2022/09/12 05:11:56;;;;;;;10.77;6.90;;;18.50;92.60;;;;;;10472132;28;20113;-63
2022/09/12 05:17:00;;;;;;;9.25;5.97;;;18.50;92.60;;;;;;10458468;28;20273;-64
2022/09/12 05:22:00;;;;;;;8.85;5.95;;;18.50;92.60;;;;;;10398955;28;20029;-67
2022/09/12 05:27:03;;;;;;;8.05;5.82;;;18.50;92.50;;;;;;10395246;28;20952;-64
2022/09/12 05:32:04;;;;;;;8.85;5.88;;;18.50;92.50;;;;;;10387224;28;20329;-63
2022/09/12 05:37:05;;;;;;;9.60;5.63;;;18.50;92.50;;;;;;10387988;28;20029;-63
2022/09/12 05:42:06;;;;;;;9.90;6.20;;;18.50;92.50;;;;;;10390396;28;20036;-65
2022/09/12 05:47:11;;;;;;;8.77;5.63;;;18.50;92.50;;;;;;10399632;28;20067;-63
2022/09/12 05:52:11;;;;;;;8.52;6.18;;;18.50;92.50;;;;;;10398029;28;20044;-64
2022/09/12 05:57:13;;;;;;;9.30;5.53;;;18.50;92.50;;;;;;10395132;28;20457;-64
2022/09/12 06:02:14;;;;;;;9.85;5.97;;;18.50;92.40;;;;;;10404247;28;20037;-64
2022/09/12 06:07:14;;;;;;;10.93;6.85;;;18.50;92.50;;;;;;10406963;28;20491;-64
2022/09/12 06:12:15;;;;;;;10.88;6.00;;;18.50;92.40;;;;;;10405700;28;20341;-64
2022/09/12 06:17:17;;;;;;;10.73;5.75;;;18.50;92.40;;;;;;10402474;28;20315;-63
2022/09/12 06:22:18;;;;;;;11.40;6.72;;;18.50;92.40;;;;;;10400159;28;20390;-63
2022/09/12 06:27:19;;;;;;;9.40;5.40;;;18.50;92.40;;;;;;10400707;28;20212;-63
2022/09/12 06:32:20;;;;;;;9.77;6.35;;;18.50;92.50;;;;;;10395798;28;20343;-63
2022/09/12 06:37:20;;;;;;;8.40;5.57;;;18.50;92.50;;;;;;10396687;28;20367;-63
2022/09/12 06:42:22;;;;;;;12.30;6.90;;;18.50;92.50;;;;;;10387048;28;20618;-63
2022/09/12 06:47:22;;;;;;;11.30;6.50;;;18.50;92.50;;;;;;10397555;23;20044;-67
2022/09/12 06:52:23;;;;;;;10.75;6.65;;;18.50;92.50;;;;;;10393167;28;20500;-63
2022/09/12 06:57:26;;;;;;;12.52;7.30;;;18.50;92.50;;;;;;10389225;28;20342;-64
2022/09/12 07:02:27;;;;;;;13.38;7.53;;;18.50;92.50;;;;;;10391621;28;20049;-63
2022/09/12 07:07:30;;;;;;;10.60;6.38;;;18.50;92.50;;;;;;10392654;28;20489;-63
2022/09/12 07:12:31;;;;;;;11.75;7.18;;;18.50;92.50;;;;;;10391029;28;20167;-63
2022/09/12 07:17:31;;;;;;;13.95;8.50;;;18.50;92.50;;;;;;10386038;28;20032;-63
2022/09/12 07:22:32;;;;;;;14.10;7.43;;;18.50;92.50;;;;;;10385417;28;20511;-63
2022/09/12 07:27:33;;;;;;;15.15;8.57;;;18.50;92.50;;;;;;10382969;28;20040;-63
2022/09/12 07:32:33;;;;;;;12.52;7.20;;;18.60;92.50;;;;;;10383728;28;20114;-63
2022/09/12 07:37:37;;;;;;;14.15;8.05;;;18.60;92.50;;;;;;10382700;28;20194;-63
2022/09/12 07:42:37;;;;;;;16.48;8.40;;;18.60;92.50;;;;;;10382607;28;20104;-63
2022/09/12 07:47:39;;;;;;;13.93;7.63;;;18.60;92.50;;;;;;10390879;28;20040;-63
2022/09/12 07:52:40;;;;;;;12.10;7.32;;;18.60;92.50;;;;;;10386146;28;20040;-67
2022/09/12 07:57:41;;;;;;;15.35;8.43;;;18.60;92.50;;;;;;10391034;28;20093;-64
2022/09/12 08:02:42;;;;;;;12.88;7.90;;;18.60;92.50;;;;;;10393963;28;20086;-63
2022/09/12 08:07:43;;;;;;;16.10;8.45;;;18.60;92.50;;;;;;10393162;28;20308;-63
2022/09/12 08:12:43;;;;;;;14.43;8.30;;;18.70;92.50;;;;;;10394350;28;20044;-63
2022/09/12 08:17:44;;;;;;;15.77;8.52;;;18.70;92.40;;;;;;10384254;28;20432;-65
2022/09/12 08:22:45;;;;;;;13.77;8.18;;;18.70;92.40;;;;;;10380566;28;20476;-63
2022/09/12 08:27:47;;;;;;;13.88;7.85;;;18.80;92.40;;;;;;10377268;28;20337;-63
2022/09/12 08:32:47;;;;;;;16.27;8.32;;;18.80;92.40;;;;;;10384391;28;20152;-66
2022/09/12 08:37:48;;;;;;;16.85;9.10;;;18.90;92.40;;;;;;10382257;28;20266;-63
2022/09/12 08:43:22;;;;;;;13.82;7.65;;;18.90;92.40;;;;;;10378502;28;20032;-63
2022/09/12 08:48:23;;;;;;;16.35;9.18;;;18.90;92.40;;;;;;10385978;22;20096;-64
2022/09/12 08:53:28;;;;;;;16.83;9.13;;;19.00;92.30;;;;;;10315426;28;20161;-68
2022/09/12 08:58:36;;;;;;;14.15;8.18;;;19.00;92.30;;;;;;10316620;28;20029;-64
2022/09/12 09:03:55;;;;;;;15.18;9.00;;;19.00;92.30;;;;;;10318437;28;20022;-63
2022/09/12 09:09:15;;;;;;;17.63;8.70;;;19.00;92.20;;;;;;10321941;28;20461;-64
2022/09/12 09:14:48;;;;;;;18.42;10.48;;;19.10;92.30;;;;;;10317998;28;20044;-63
2022/09/12 09:20:16;;;;;;;16.85;9.25;;;19.10;92.30;;;;;;10315882;28;20105;-63
2022/09/12 09:25:35;;;;;;;15.55;9.48;;;19.10;92.20;;;;;;10284404;28;20494;-64
2022/09/12 09:30:37;;;;;;;17.65;8.52;;;19.20;92.20;;;;;;10322543;28;20103;-63
2022/09/12 09:35:43;;;;;;;18.60;9.30;;;19.20;92.20;;;;;;10327663;28;20643;-63
2022/09/12 09:41:05;;;;;;;18.83;8.93;;;19.20;92.20;;;;;;10328798;28;20210;-63
2022/09/12 09:46:06;;;;;;;19.23;9.70;;;19.20;92.30;;;;;;10327515;28;20592;-63
2022/09/12 09:51:08;;;;;;;16.98;9.23;;;19.30;92.30;;;;;;10328773;28;20049;-63
2022/09/12 09:56:36;;;;;;;15.52;8.55;;;19.40;92.20;;;;;;10308547;28;20349;-63
2022/09/12 10:02:02;;;;;;;15.95;9.32;;;19.40;92.30;;;;;;10321757;28;20572;-63
2022/09/12 10:07:04;;;;;;;16.92;9.27;;;19.40;92.30;;;;;;10327856;28;20301;-63
2022/09/12 10:12:27;;;;;;;18.27;9.73;;;19.50;92.20;;;;;;10326155;28;20128;-63
2022/09/12 10:17:40;;;;;;;19.67;9.32;;;19.60;92.30;;;;;;10325741;28;20455;-62
2022/09/12 10:22:46;;;;;;;15.98;9.10;;;19.60;92.20;;;;;;10326752;28;20453;-63
2022/09/12 10:27:56;;;;;;;17.00;9.35;;;19.70;92.20;;;;;;10324553;28;20029;-63
2022/09/12 10:33:10;;;;;;;19.30;9.25;;;19.80;92.20;;;;;;10320493;28;20037;-63
2022/09/12 10:38:21;;;;;;;17.90;9.82;;;19.80;92.10;;;;;;10321956;28;20025;-63
2022/09/12 10:43:38;;;;;;;19.20;9.98;;;19.90;92.10;;;;;;10325164;28;20087;-63
2022/09/12 10:48:39;;;;;;;16.60;9.20;;;20.00;92.10;;;;;;10322102;28;20661;-63
2022/09/12 10:53:43;;;;;;;16.60;9.10;;;20.10;92.00;;;;;;10318786;28;20063;-64
2022/09/12 10:58:50;;;;;;;18.63;8.82;;;20.10;92.00;;;;;;10322408;28;20036;-64
2022/09/12 11:04:14;;;;;;;16.40;9.23;;;20.20;92.00;;;;;;10323020;28;20111;-64
2022/09/12 11:09:19;;;;;;;16.55;9.05;;;20.30;92.10;;;;;;10325573;28;20099;-62
2022/09/12 11:14:55;;;;;;;17.92;8.80;;;20.30;91.90;;;;;;10323423;28;20448;-63
2022/09/12 11:20:18;;;;;;;15.65;8.68;;;20.50;92.00;;;;;;10302030;28;20038;-63
2022/09/12 11:25:33;;;;;;;13.90;7.63;;;20.50;91.90;;;;;;10317822;28;20061;-63
2022/09/12 11:30:52;;;;;;;14.82;7.80;;;20.60;91.90;;;;;;10316119;28;20045;-63
2022/09/12 11:35:56;;;;;;;15.45;7.47;;;20.60;91.80;;;;;;10317583;28;21297;-63
2022/09/12 11:41:19;;;;;;;11.80;7.18;;;20.60;91.80;;;;;;10319845;28;20029;-63
2022/09/12 11:46:36;;;;;;;12.00;7.03;;;20.70;91.80;;;;;;10321223;28;21712;-63
2022/09/12 11:51:48;;;;;;;12.13;7.15;;;20.70;91.80;;;;;;10326260;28;20048;-63
2022/09/12 11:56:58;;;;;;;11.23;6.47;;;20.80;91.70;;;;;;10323342;28;20840;-63
2022/09/12 12:02:00;;;;;;;11.88;7.13;;;20.90;91.70;;;;;;10322112;28;20565;-63
2022/09/12 12:07:06;;;;;;;12.38;6.88;;;20.90;91.70;;;;;;10320908;28;20603;-63
2022/09/12 12:12:13;;;;;;;12.45;7.20;;;20.90;91.70;;;;;;10325543;28;20033;-63
2022/09/12 12:17:16;;;;;;;11.68;7.47;;;21.00;91.90;;;;;;10301730;28;20115;-63
2022/09/12 12:22:22;;;;;;;11.50;6.40;;;21.00;91.60;;;;;;10317303;28;20056;-65
2022/09/12 12:27:52;;;;;;;9.80;6.68;;;21.10;91.70;;;;;;10322448;28;20421;-64
2022/09/12 12:33:08;;;;;;;10.63;6.35;;;21.20;91.70;;;;;;10305477;28;20922;-62
2022/09/12 12:38:26;;;;;;;13.00;7.25;;;21.20;91.70;;;;;;10309319;28;20025;-63
2022/09/12 12:43:33;;;;;;;10.18;6.13;;;21.10;91.70;;;;;;10311927;28;20021;-63
2022/09/12 12:48:48;;;;;;;15.93;9.45;;;21.30;91.60;;;;;;10318472;28;20050;-61
2022/09/12 12:53:50;;;;;;;17.75;9.82;;;21.50;91.70;;;;;;10317157;28;20580;-68
2022/09/12 12:59:11;;;;;;;15.60;9.13;;;21.90;91.40;;;;;;10319923;28;20087;-63
2022/09/12 13:04:18;;;;;;;15.73;9.07;;;22.30;91.10;;;;;;10310986;28;20928;-62
2022/09/12 13:09:36;;;;;;;18.80;9.77;;;22.40;90.80;;;;;;10314835;28;20128;-62
2022/09/12 13:14:58;;;;;;;12.85;8.45;;;22.50;90.80;;;;;;10321073;28;20906;-62
2022/09/12 13:20:13;;;;;;;13.65;8.20;;;22.50;90.70;;;;;;10286486;28;20030;-63
2022/09/12 13:25:33;;;;;;;13.30;6.35;;;22.50;90.70;;;;;;10322006;28;20810;-61
2022/09/12 13:30:37;;;;;;;10.88;6.75;;;22.70;90.40;;;;;;10304364;28;20068;-62
2022/09/12 13:35:48;;;;;;;7.93;5.60;;;22.90;90.10;;;;;;10323694;28;20584;-62
2022/09/12 13:41:12;;;;;;;8.55;5.82;;;23.00;89.90;;;;;;10305405;28;20025;-62
2022/09/12 13:46:20;;;;;;;8.90;5.65;;;23.10;89.20;;;;;;10323177;28;20556;-64
2022/09/12 13:51:27;;;;;;;7.55;5.07;;;23.10;88.90;;;;;;10325485;28;20049;-61
2022/09/12 13:56:28;;;;;;;6.53;4.43;;;23.40;88.00;;;;;;10323017;28;20045;-66
2022/09/12 14:01:41;;;;;;;6.53;4.25;;;23.60;87.10;;;;;;10325450;28;20275;-62
2022/09/12 14:06:42;;;;;;;6.15;4.30;;;23.70;86.10;;;;;;10322407;28;20032;-62
2022/09/12 14:11:43;;;;;;;6.05;4.05;;;23.80;86.30;;;;;;10321576;28;20044;-62
2022/09/12 14:16:43;;;;;;;5.68;3.90;;;24.00;85.90;;;;;;10323963;28;20069;-63
2022/09/12 14:21:45;;;;;;;4.65;3.55;;;24.10;85.20;;;;;;10318471;28;20038;-62
2022/09/12 14:26:48;;;;;;;7.95;3.78;;;24.20;84.80;;;;;;10326067;28;20041;-62
2022/09/12 14:32:01;;;;;;;4.80;3.45;;;24.20;84.30;;;;;;10323362;28;20045;-62
2022/09/12 14:37:05;;;;;;;3.80;3.30;;;24.20;83.10;;;;;;10319994;28;20110;-62
2022/09/12 14:42:16;;;;;;;4.45;3.13;;;24.20;83.50;;;;;;10321305;28;20021;-62
2022/09/12 14:47:26;;;;;;;4.90;3.47;;;24.10;82.70;;;;;;10318703;28;20044;-62
2022/09/12 14:52:33;;;;;;;5.75;3.75;;;24.00;82.90;;;;;;10314879;28;20037;-62
2022/09/12 14:57:41;;;;;;;6.13;4.07;;;24.00;82.50;;;;;;10309380;28;20119;-62
2022/09/12 15:02:43;;;;;;;5.93;3.72;;;23.90;83.10;;;;;;10294004;28;20485;-62
2022/09/12 15:07:52;;;;;;;5.68;3.63;;;24.00;83.00;;;;;;10315970;28;20036;-61
2022/09/12 15:13:07;;;;;;;6.30;3.85;;;24.00;82.40;;;;;;10317255;28;20045;-62
2022/09/12 15:18:08;;;;;;;5.43;3.97;;;23.90;81.80;;;;;;10312337;28;20509;-62
2022/09/12 15:23:18;;;;;;;4.28;3.83;;;23.80;83.00;;;;;;10309625;28;20218;-62
2022/09/12 15:28:22;;;;;;;6.30;3.80;;;23.60;83.10;;;;;;10316326;28;20147;-62
2022/09/12 15:33:24;;;;;;;5.00;3.15;;;23.70;83.50;;;;;;10321325;28;20207;-62
2022/09/12 15:38:24;;;;;;;4.45;3.03;;;23.80;83.00;;;;;;10320213;28;20025;-62
2022/09/12 15:43:26;;;;;;;3.75;3.00;;;23.80;82.00;;;;;;10312750;28;20410;-62
2022/09/12 15:48:27;;;;;;;4.38;3.33;;;23.60;82.00;;;;;;10296388;28;20052;-61
2022/09/12 15:53:28;;;;;;;6.35;3.67;;;23.50;82.60;;;;;;10310839;28;20536;-62
2022/09/12 15:58:29;;;;;;;4.78;2.90;;;23.30;82.50;;;;;;10320583;28;20648;-61
2022/09/12 16:03:30;;;;;;;5.85;3.50;;;23.20;82.90;;;;;;10315636;28;20154;-62
2022/09/12 16:08:31;;;;;;;6.65;3.65;;;23.10;83.10;;;;;;10312527;28;20757;-61
2022/09/12 16:13:32;;;;;;;5.50;3.55;;;23.00;83.00;;;;;;10306546;28;20979;-62
2022/09/12 16:18:33;;;;;;;4.68;3.17;;;23.00;83.10;;;;;;10296077;28;20028;-62
2022/09/12 16:23:34;;;;;;;4.35;3.53;;;22.90;83.10;;;;;;10313347;28;20193;-62
2022/09/12 16:28:35;;;;;;;4.45;3.60;;;22.90;83.50;;;;;;10316760;28;21802;-62
2022/09/12 16:33:36;;;;;;;5.30;3.72;;;22.80;83.50;;;;;;10312378;28;20036;-62
2022/09/12 16:38:48;;;;;;;6.68;3.90;;;22.80;83.70;;;;;;10316307;28;20262;-62
2022/09/12 16:43:49;;;;;;;4.60;3.78;;;22.80;83.80;;;;;;10318633;28;20075;-63
2022/09/12 16:48:55;;;;;;;5.30;3.65;;;22.70;84.10;;;;;;10297440;28;20076;-63
2022/09/12 16:53:56;;;;;;;8.05;4.13;;;22.60;84.20;;;;;;10305838;28;20033;-63
2022/09/12 16:58:57;;;;;;;5.53;3.97;;;22.60;84.30;;;;;;10305937;28;20037;-64
2022/09/12 17:03:58;;;;;;;5.40;3.38;;;22.50;84.60;;;;;;10308063;28;20108;-64
2022/09/12 17:09:01;;;;;;;5.55;3.67;;;22.50;84.70;;;;;;10311916;28;20182;-67
2022/09/12 17:14:04;;;;;;;5.30;3.35;;;22.40;85.00;;;;;;10293287;28;20122;-64
2022/09/12 17:19:06;;;;;;;3.97;3.53;;;22.30;85.30;;;;;;10312518;28;20153;-63
2022/09/12 17:24:07;;;;;;;4.50;3.63;;;22.20;85.60;;;;;;10311872;28;20041;-63
2022/09/12 17:29:11;;;;;;;4.55;3.67;;;22.10;85.80;;;;;;10310853;28;20644;-64
2022/09/12 17:34:13;;;;;;;6.05;4.22;;;22.00;86.10;;;;;;10311713;28;20444;-63
2022/09/12 17:39:14;;;;;;;5.78;4.13;;;21.90;86.20;;;;;;10310903;28;20037;-63
2022/09/12 17:44:14;;;;;;;4.68;3.80;;;21.90;87.50;;;;;;10289590;28;20025;-63
2022/09/12 17:49:17;;;;;;;36.38;8.82;;;21.80;87.20;;;;;;10308672;28;20057;-61
2022/09/12 17:54:21;;;;;;;9.10;4.20;;;21.70;87.70;;;;;;10315170;28;20595;-64
2022/09/12 17:59:23;;;;;;;7.75;4.40;;;21.60;88.60;;;;;;10312746;28;20037;-65
2022/09/12 18:04:26;;;;;;;7.78;4.25;;;21.60;89.10;;;;;;10301220;28;20163;-65
2022/09/12 18:09:28;;;;;;;8.05;3.85;;;21.70;89.20;;;;;;10316587;28;20034;-67
2022/09/12 18:14:28;;;;;;;10.63;4.25;;;21.70;89.10;;;;;;10309619;28;20045;-65
2022/09/12 18:19:30;;;;;;;10.55;4.45;;;21.70;89.20;;;;;;10287154;28;20033;-67
2022/09/12 18:24:32;;;;;;;6.50;4.50;;;21.90;89.20;;;;;;10369102;28;20332;-65
2022/09/12 18:29:32;;;;;;;8.82;4.80;;;21.80;89.20;;;;;;10394458;28;20036;-65
2022/09/12 18:34:33;;;;;;;7.93;4.35;;;21.80;89.20;;;;;;10394965;28;20033;-65
2022/09/12 18:39:35;;;;;;;7.03;4.28;;;21.80;89.30;;;;;;10397017;28;20029;-65
2022/09/12 18:44:36;;;;;;;7.57;3.88;;;21.80;89.50;;;;;;10393588;28;20036;-66
2022/09/12 18:49:37;;;;;;;5.93;3.60;;;21.80;89.50;;;;;;10385004;28;21282;-65
2022/09/12 18:54:38;;;;;;;5.03;3.90;;;21.80;89.60;;;;;;10395021;28;20037;-65
2022/09/12 18:59:38;;;;;;;6.75;3.85;;;21.70;89.60;;;;;;10388010;28;20033;-65
2022/09/12 19:04:39;;;;;;;5.63;3.60;;;21.70;89.70;;;;;;10393138;28;20079;-65
2022/09/12 19:09:40;;;;;;;8.00;4.28;;;21.70;89.80;;;;;;10392446;28;20366;-65
2022/09/12 19:14:41;;;;;;;7.20;4.00;;;21.70;89.90;;;;;;10387596;28;20124;-66
2022/09/12 19:19:42;;;;;;;4.57;3.40;;;21.70;90.00;;;;;;10389676;28;20393;-66
2022/09/12 19:24:42;;;;;;;5.22;3.35;;;21.70;90.00;;;;;;10390651;28;20371;-65
2022/09/12 19:29:43;;;;;;;6.97;4.20;;;21.60;90.00;;;;;;10387808;28;21248;-64
2022/09/12 19:34:44;;;;;;;5.88;3.38;;;21.60;90.00;;;;;;10390931;28;20041;-64
2022/09/12 19:39:44;;;;;;;6.82;3.65;;;21.50;90.10;;;;;;10395708;28;20037;-65
2022/09/12 19:44:45;;;;;;;4.82;3.90;;;21.50;90.10;;;;;;10390852;28;20041;-65
2022/09/12 19:49:46;;;;;;;5.55;3.40;;;21.50;90.20;;;;;;10388513;28;20053;-65
2022/09/12 19:54:47;;;;;;;5.10;3.45;;;21.50;90.20;;;;;;10394879;28;20113;-64
2022/09/12 19:59:48;;;;;;;5.57;4.38;;;21.50;90.30;;;;;;10394663;28;20123;-65
2022/09/12 20:04:49;;;;;;;6.07;3.72;;;21.40;90.30;;;;;;10390168;28;20506;-64
2022/09/12 20:09:50;;;;;;;6.55;4.00;;;21.40;90.30;;;;;;10387968;28;20075;-65
2022/09/12 20:14:50;;;;;;;6.68;3.95;;;21.40;90.40;;;;;;10392750;28;20048;-64
2022/09/12 20:19:51;;;;;;;4.43;3.85;;;21.40;90.40;;;;;;10392544;28;20032;-65
2022/09/12 20:24:52;;;;;;;6.45;3.78;;;21.40;90.40;;;;;;10392422;28;20498;-64
2022/09/12 20:29:53;;;;;;;5.60;3.47;;;21.30;90.40;;;;;;10393627;28;20112;-65
2022/09/12 20:34:55;;;;;;;3.92;3.35;;;21.30;90.50;;;;;;10392650;28;20041;-76
2022/09/12 20:39:55;;;;;;;5.72;3.80;;;21.30;90.50;;;;;;10387615;28;20029;-70
2022/09/12 20:44:56;;;;;;;4.95;4.20;;;21.30;90.60;;;;;;10389761;28;20033;-69
2022/09/12 20:49:58;;;;;;;4.55;3.22;;;21.30;90.60;;;;;;10389853;28;20045;-66
2022/09/12 20:54:59;;;;;;;4.45;3.65;;;21.20;90.60;;;;;;10355477;28;20444;-64
2022/09/12 20:59:59;;;;;;;5.60;3.90;;;21.20;90.70;;;;;;10374407;28;20075;-66
2022/09/12 21:05:00;;;;;;;5.63;3.70;;;21.20;90.70;;;;;;10391422;28;20124;-68
2022/09/12 21:10:01;;;;;;;6.40;4.05;;;21.20;90.70;;;;;;10390402;28;20486;-76
2022/09/12 21:15:02;;;;;;;7.07;3.72;;;21.20;90.70;;;;;;10392670;28;20889;-65
2022/09/12 21:20:03;;;;;;;5.07;3.92;;;21.20;90.70;;;;;;10391865;28;20041;-65
2022/09/12 21:25:04;;;;;;;6.25;4.05;;;21.10;90.70;;;;;;10390852;28;20030;-65
2022/09/12 21:30:05;;;;;;;4.75;3.78;;;21.10;90.70;;;;;;10398629;28;20116;-65
2022/09/12 21:35:07;;;;;;;10.70;3.92;;;21.10;90.80;;;;;;10398289;28;20049;-64
2022/09/12 21:40:08;;;;;;;5.28;3.70;;;21.10;90.80;;;;;;10397933;28;20053;-73
2022/09/12 21:45:10;;;;;;;5.63;3.75;;;21.10;90.80;;;;;;10397703;28;20120;-65
2022/09/12 21:50:12;;;;;;;5.72;3.50;;;21.10;90.80;;;;;;10397530;28;20779;-73
2022/09/12 21:55:12;;;;;;;5.20;3.83;;;21.10;90.80;;;;;;10395372;28;20037;-68
2022/09/12 22:00:15;;;;;;;5.35;3.60;;;21.00;90.90;;;;;;10396238;28;20551;-65
2022/09/12 22:05:16;;;;;;;5.90;3.83;;;21.00;90.90;;;;;;10397509;28;20025;-64
2022/09/12 22:10:17;;;;;;;4.80;3.85;;;21.00;90.90;;;;;;10375904;28;20014;-75
2022/09/12 22:15:18;;;;;;;5.00;3.50;;;21.00;90.90;;;;;;10398488;28;20037;-68
2022/09/12 22:20:18;;;;;;;5.95;3.90;;;21.00;91.00;;;;;;10398415;28;20022;-65
2022/09/12 22:25:23;;;;;;;4.28;3.88;;;21.00;90.90;;;;;;10399707;28;20037;-66
2022/09/12 22:30:26;;;;;;;7.25;4.10;;;20.90;90.90;;;;;;10399111;28;20032;-65
2022/09/12 22:35:26;;;;;;;5.70;3.67;;;20.90;90.90;;;;;;10398908;28;20516;-65
2022/09/12 22:40:27;;;;;;;4.30;3.60;;;20.90;91.00;;;;;;10396593;28;20031;-65
2022/09/12 22:45:28;;;;;;;6.20;3.90;;;20.90;91.00;;;;;;10397582;28;20079;-69
2022/09/12 22:50:29;;;;;;;4.50;3.55;;;20.90;91.00;;;;;;10382699;28;20060;-64
2022/09/12 22:55:30;;;;;;;4.75;3.85;;;20.90;91.10;;;;;;10397408;28;20067;-65
2022/09/12 23:00:31;;;;;;;6.30;4.22;;;20.90;91.10;;;;;;10397955;28;20124;-65
2022/09/12 23:05:31;;;;;;;5.13;4.13;;;20.90;91.10;;;;;;10397499;28;20036;-64
2022/09/12 23:10:36;;;;;;;6.40;4.38;;;20.80;91.10;;;;;;10392377;28;20052;-66
2022/09/12 23:15:38;;;;;;;5.93;3.75;;;20.80;91.10;;;;;;10392729;28;20398;-65
2022/09/12 23:20:39;;;;;;;5.00;3.80;;;20.80;91.20;;;;;;10394723;28;20020;-66
2022/09/12 23:25:40;;;;;;;5.35;3.83;;;20.80;91.20;;;;;;10396179;28;20029;-65
2022/09/12 23:30:40;;;;;;;5.15;4.05;;;20.80;91.30;;;;;;10398963;28;20026;-65
2022/09/12 23:35:41;;;;;;;6.30;4.25;;;20.80;91.30;;;;;;10396962;28;20037;-65
2022/09/12 23:40:42;;;;;;;6.70;4.30;;;20.80;91.40;;;;;;10395854;28;20521;-65
2022/09/12 23:45:43;;;;;;;6.78;3.97;;;20.80;91.50;;;;;;10374459;28;20046;-67
2022/09/12 23:50:45;;;;;;;4.90;3.72;;;20.70;91.50;;;;;;10393629;28;20046;-65
2022/09/12 23:55:46;;;;;;;6.80;4.43;;;20.70;91.60;;;;;;10395549;28;20134;-64
